Time;durP1;ratioP1;P1;durP2;ratioP2;P2;SDS_P1;SDS_P2;PMS_P1;PMS_P2;Temp;Humidity;BMP_temperature;BMP_pressure;BME280_temperature;BME280_humidity;BME280_pressure;Samples;Min_cycle;Max_cycle;Signal;HPM_P1;HPM_P2
2021/01/30 00:00:25;;;;;;;2.55;0.90;;;;;;;4.42;100.00;94641.56;974709;30;20063;-60
2021/01/30 00:00:55;;;;;;;1.65;0.80;;;;;;;4.41;100.00;94637.31;982011;30;20468;-60
2021/01/30 00:01:26;;;;;;;3.22;0.80;;;;;;;4.44;100.00;94636.16;989412;30;20023;-60
2021/01/30 00:01:57;;;;;;;4.82;1.05;;;;;;;4.42;100.00;94644.22;985399;30;20042;-60
2021/01/30 00:02:28;;;;;;;4.35;1.08;;;;;;;4.45;100.00;94646.50;981944;30;20032;-60
2021/01/30 00:02:59;;;;;;;6.05;1.00;;;;;;;4.47;100.00;94641.88;989315;30;20158;-61
2021/01/30 00:03:30;;;;;;;4.60;1.73;;;;;;;4.51;100.00;94642.38;985775;30;20027;-61
2021/01/30 00:04:00;;;;;;;1.35;0.73;;;;;;;4.49;100.00;94639.09;985436;30;20036;-60
2021/01/30 00:04:32;;;;;;;2.40;0.90;;;;;;;4.47;100.00;94647.16;981901;30;20127;-59
2021/01/30 00:05:03;;;;;;;3.58;0.80;;;;;;;4.49;100.00;94639.09;985617;30;20032;-60
2021/01/30 00:05:34;;;;;;;1.98;0.77;;;;;;;4.48;100.00;94640.09;981967;30;20067;-61
2021/01/30 00:06:05;;;;;;;3.70;0.90;;;;;;;4.50;100.00;94646.00;981789;30;20028;-61
2021/01/30 00:06:36;;;;;;;3.28;1.00;;;;;;;4.50;100.00;94646.81;978273;30;20039;-61
2021/01/30 00:07:08;;;;;;;3.38;1.00;;;;;;;4.53;100.00;94635.97;982001;30;20397;-61
2021/01/30 00:07:38;;;;;;;2.88;0.80;;;;;;;4.54;100.00;94639.41;974618;30;20127;-62
2021/01/30 00:08:13;;;;;;;4.13;1.00;;;;;;;4.53;100.00;94643.03;989190;30;20028;-61
2021/01/30 00:08:44;;;;;;;2.92;0.95;;;;;;;4.54;100.00;94649.91;989280;30;20063;-61
2021/01/30 00:09:15;;;;;;;2.42;0.95;;;;;;;4.55;100.00;94648.94;985587;30;20077;-60
2021/01/30 00:09:45;;;;;;;2.90;0.82;;;;;;;4.54;100.00;94644.66;981929;30;20039;-60
2021/01/30 00:10:17;;;;;;;3.67;0.90;;;;;;;4.58;100.00;94651.22;981885;30;20109;-61
2021/01/30 00:10:47;;;;;;;4.45;0.90;;;;;;;4.62;100.00;94641.19;985797;30;20092;-59
2021/01/30 00:11:18;;;;;;;1.77;0.73;;;;;;;4.64;100.00;94642.63;978363;30;20036;-61
2021/01/30 00:11:50;;;;;;;2.83;0.70;;;;;;;4.66;100.00;94653.00;982078;30;20028;-61
2021/01/30 00:12:20;;;;;;;3.97;0.80;;;;;;;4.65;100.00;94639.03;981791;30;20039;-61
2021/01/30 00:12:54;;;;;;;2.15;0.90;;;;;;;4.66;100.00;94639.84;985298;30;20035;-59
2021/01/30 00:13:25;;;;;;;3.35;0.85;;;;;;;4.67;100.00;94638.88;982136;30;20044;-61
2021/01/30 00:13:56;;;;;;;3.55;0.80;;;;;;;4.66;100.00;94640.66;989361;30;20078;-61
2021/01/30 00:14:30;;;;;;;1.75;0.85;;;;;;;4.65;100.00;94643.44;985490;30;20202;-60
2021/01/30 00:15:00;;;;;;;2.00;0.80;;;;;;;4.67;100.00;94644.94;978247;30;20028;-60
2021/01/30 00:15:31;;;;;;;4.93;0.80;;;;;;;4.65;100.00;94641.66;985620;30;20130;-60
2021/01/30 00:16:05;;;;;;;2.05;0.75;;;;;;;4.64;100.00;94655.78;985708;30;20111;-60
2021/01/30 00:16:36;;;;;;;3.22;1.00;;;;;;;4.66;100.00;94639.84;978146;30;20483;-60
2021/01/30 00:17:07;;;;;;;1.25;0.65;;;;;;;4.67;100.00;94644.94;981892;30;20127;-61
2021/01/30 00:17:38;;;;;;;3.13;0.80;;;;;;;4.70;100.00;94646.38;981880;30;20025;-60
2021/01/30 00:18:09;;;;;;;2.63;0.80;;;;;;;4.65;100.00;94644.28;981947;30;20060;-61
2021/01/30 00:18:40;;;;;;;1.65;0.73;;;;;;;4.71;100.00;94648.03;978098;30;20032;-60
2021/01/30 00:19:10;;;;;;;1.70;0.80;;;;;;;4.70;100.00;94647.22;989230;30;20054;-60
2021/01/30 00:19:43;;;;;;;4.40;0.80;;;;;;;4.68;100.00;94649.19;992984;29;20083;-60
2021/01/30 00:20:15;;;;;;;2.47;0.88;;;;;;;4.69;100.00;94645.56;974679;30;20025;-60
2021/01/30 00:20:45;;;;;;;4.85;1.08;;;;;;;4.70;100.00;94635.88;989104;30;20027;-60
2021/01/30 00:21:16;;;;;;;3.70;1.20;;;;;;;4.76;100.00;94647.53;985528;30;20070;-60
2021/01/30 00:21:50;;;;;;;6.72;1.50;;;;;;;4.78;100.00;94656.06;971072;30;20022;-60
2021/01/30 00:22:21;;;;;;;2.55;0.60;;;;;;;4.75;100.00;94645.88;981971;30;20086;-61
2021/01/30 00:22:52;;;;;;;1.27;0.60;;;;;;;4.75;100.00;94649.31;989075;30;20498;-61
2021/01/30 00:23:23;;;;;;;3.13;0.90;;;;;;;4.75;100.00;94643.25;978312;30;20028;-61
2021/01/30 00:23:54;;;;;;;2.22;0.80;;;;;;;4.74;100.00;94652.97;978313;30;20091;-61
2021/01/30 00:24:25;;;;;;;1.77;0.80;;;;;;;4.73;100.00;94649.50;985604;30;20028;-61
2021/01/30 00:24:56;;;;;;;2.55;0.80;;;;;;;4.72;100.00;94645.25;985446;30;20637;-61
2021/01/30 00:25:29;;;;;;;2.38;0.73;;;;;;;4.74;100.00;94655.59;982007;30;20089;-61
2021/01/30 00:26:00;;;;;;;2.42;0.60;;;;;;;4.76;100.00;94645.72;985628;30;20115;-60
2021/01/30 00:26:31;;;;;;;1.42;0.75;;;;;;;4.78;100.00;94648.97;985560;30;20050;-60
2021/01/30 00:27:03;;;;;;;3.30;0.90;;;;;;;4.76;100.00;94650.16;981743;30;20024;-60
2021/01/30 00:27:34;;;;;;;1.75;0.80;;;;;;;4.75;100.00;94649.31;985277;30;20048;-61
2021/01/30 00:28:06;;;;;;;3.50;0.70;;;;;;;4.75;100.00;94659.03;981358;30;20501;-60
2021/01/30 00:28:36;;;;;;;3.47;1.02;;;;;;;4.76;100.00;94655.41;981941;30;20458;-60
2021/01/30 00:29:07;;;;;;;2.30;0.80;;;;;;;4.74;100.00;94652.97;989069;30;20024;-60
2021/01/30 00:29:38;;;;;;;2.00;0.93;;;;;;;4.77;100.00;94655.22;983537;30;20040;-60
2021/01/30 00:30:11;;;;;;;2.33;0.68;;;;;;;4.77;100.00;94651.78;981811;30;20127;-60
2021/01/30 00:30:42;;;;;;;2.50;0.90;;;;;;;4.78;100.00;94653.44;985644;30;20539;-60
2021/01/30 00:31:13;;;;;;;1.92;0.68;;;;;;;4.77;100.00;94643.88;974453;30;20061;-60
2021/01/30 00:31:44;;;;;;;1.88;0.75;;;;;;;4.79;100.00;94657.69;996968;29;20213;-60
2021/01/30 00:32:16;;;;;;;1.50;0.60;;;;;;;4.80;100.00;94651.44;989266;30;20102;-60
2021/01/30 00:32:47;;;;;;;3.65;0.80;;;;;;;4.81;100.00;94659.16;985627;30;20405;-60
2021/01/30 00:33:18;;;;;;;1.77;0.60;;;;;;;4.86;100.00;94671.78;985016;30;20084;-59
2021/01/30 00:33:48;;;;;;;1.00;0.50;;;;;;;4.85;100.00;94670.16;996757;29;20503;-60
2021/01/30 00:34:21;;;;;;;2.97;0.55;;;;;;;4.86;100.00;94654.22;978274;30;20056;-59
2021/01/30 00:34:51;;;;;;;2.35;0.52;;;;;;;4.88;100.00;94654.84;985659;30;20437;-60
2021/01/30 00:35:23;;;;;;;1.75;0.57;;;;;;;4.82;100.00;94647.63;992771;29;20034;-60
2021/01/30 00:35:54;;;;;;;1.55;0.70;;;;;;;4.84;100.00;94650.09;993094;29;20034;-60
2021/01/30 00:36:24;;;;;;;4.43;0.82;;;;;;;4.86;100.00;94646.31;978410;30;20040;-60
2021/01/30 00:36:56;;;;;;;2.85;0.80;;;;;;;4.87;100.00;94649.75;989343;30;20103;-60
2021/01/30 00:37:27;;;;;;;2.40;0.70;;;;;;;4.88;100.00;94656.66;988959;30;20035;-60
2021/01/30 00:37:58;;;;;;;1.02;0.57;;;;;;;4.86;100.00;94650.72;989351;30;20039;-60
2021/01/30 00:38:29;;;;;;;1.27;0.50;;;;;;;4.85;100.00;94644.66;993731;29;20019;-60
2021/01/30 00:39:00;;;;;;;1.90;0.60;;;;;;;4.86;100.00;94653.38;996707;29;20109;-60
2021/01/30 00:39:31;;;;;;;2.65;0.70;;;;;;;4.86;100.00;94662.09;996548;29;20049;-60
2021/01/30 00:40:02;;;;;;;1.70;0.63;;;;;;;4.90;100.00;94655.47;996735;29;20026;-60
2021/01/30 00:40:33;;;;;;;1.45;0.60;;;;;;;4.89;100.00;94640.72;989178;30;20476;-60
2021/01/30 00:41:03;;;;;;;3.20;0.73;;;;;;;4.88;100.00;94656.66;989288;29;20106;-60
2021/01/30 00:41:34;;;;;;;0.90;0.50;;;;;;;4.88;100.00;94649.59;985298;30;20024;-60
2021/01/30 00:42:05;;;;;;;1.67;0.60;;;;;;;4.88;100.00;94640.88;989264;30;20023;-60
2021/01/30 00:42:36;;;;;;;1.35;0.70;;;;;;;4.87;100.00;94660.28;989368;30;20027;-59
2021/01/30 00:43:07;;;;;;;1.17;0.55;;;;;;;4.88;100.00;94654.03;993150;29;20027;-59
2021/01/30 00:43:38;;;;;;;1.17;0.63;;;;;;;4.84;100.00;94652.72;996573;29;20508;-60
2021/01/30 00:44:09;;;;;;;1.55;0.80;;;;;;;4.88;100.00;94656.66;989288;30;20027;-59
2021/01/30 00:44:40;;;;;;;2.03;0.75;;;;;;;4.84;100.00;94648.31;989243;30;20544;-60
2021/01/30 00:45:13;;;;;;;2.70;0.65;;;;;;;4.77;100.00;94642.06;985782;30;20110;-60
2021/01/30 00:45:44;;;;;;;2.42;0.70;;;;;;;4.86;100.00;94640.22;988933;30;20039;-60
2021/01/30 00:46:15;;;;;;;2.35;0.65;;;;;;;4.87;100.00;94647.13;989338;30;20039;-59
2021/01/30 00:46:49;;;;;;;2.05;0.57;;;;;;;4.87;100.00;94649.75;993627;29;20059;-58
2021/01/30 00:47:21;;;;;;;2.97;0.65;;;;;;;4.85;100.00;94655.19;989207;30;20021;-58
2021/01/30 00:47:52;;;;;;;1.05;0.70;;;;;;;4.85;100.00;94655.19;985020;30;20164;-60
2021/01/30 00:48:22;;;;;;;1.75;0.70;;;;;;;4.85;100.00;94659.63;993019;29;20109;-60
2021/01/30 00:48:53;;;;;;;2.63;0.50;;;;;;;4.86;100.00;94658.63;981838;30;20063;-59
2021/01/30 00:49:24;;;;;;;1.50;0.52;;;;;;;4.82;100.00;94652.91;985621;30;20024;-59
2021/01/30 00:49:55;;;;;;;2.03;0.60;;;;;;;4.84;100.00;94658.81;989105;30;20111;-59
2021/01/30 00:50:28;;;;;;;1.73;0.90;;;;;;;4.84;100.00;94647.47;996694;29;20102;-59
2021/01/30 00:50:59;;;;;;;1.67;0.68;;;;;;;4.85;100.00;94655.19;993023;29;20208;-59
2021/01/30 00:51:30;;;;;;;1.52;0.63;;;;;;;4.84;100.00;94647.47;992625;29;20157;-58
2021/01/30 00:52:01;;;;;;;3.13;0.60;;;;;;;4.86;100.00;94642.84;988984;30;20118;-59
2021/01/30 00:52:32;;;;;;;2.00;0.57;;;;;;;4.86;100.00;94663.88;989161;29;20031;-59
2021/01/30 00:53:03;;;;;;;2.17;0.50;;;;;;;4.86;100.00;94659.47;989275;30;20054;-58
2021/01/30 00:53:33;;;;;;;1.58;0.50;;;;;;;4.87;100.00;94652.38;993232;29;20019;-59
2021/01/30 00:54:04;;;;;;;2.22;0.60;;;;;;;4.82;100.00;94667.88;978793;30;20034;-59
2021/01/30 00:54:35;;;;;;;0.68;0.35;;;;;;;4.80;100.00;94651.44;986332;30;20464;-58
2021/01/30 00:55:07;;;;;;;1.95;0.70;;;;;;;4.81;100.00;94653.09;986264;30;20165;-59
2021/01/30 00:55:38;;;;;;;2.10;0.50;;;;;;;4.79;100.00;94647.16;997612;29;20031;-58
2021/01/30 00:56:11;;;;;;;2.15;0.50;;;;;;;4.81;100.00;94663.63;989810;29;20054;-58
2021/01/30 00:56:42;;;;;;;2.08;0.60;;;;;;;4.81;100.00;94651.28;993693;29;20053;-58
2021/01/30 00:57:13;;;;;;;3.85;0.70;;;;;;;4.78;100.00;94654.25;993785;29;20030;-58
2021/01/30 00:57:44;;;;;;;2.10;0.50;;;;;;;4.79;100.00;94662.94;989663;30;20529;-59
2021/01/30 00:58:15;;;;;;;3.15;0.75;;;;;;;4.82;100.00;94654.72;989730;30;20031;-58
2021/01/30 00:58:45;;;;;;;2.03;0.70;;;;;;;4.82;100.00;94658.16;997292;29;20041;-58
2021/01/30 00:59:16;;;;;;;1.95;0.60;;;;;;;4.85;100.00;94670.97;1001461;29;20097;-58
2021/01/30 00:59:47;;;;;;;1.77;0.57;;;;;;;4.84;100.00;94668.50;986226;30;20131;-58
2021/01/30 01:00:21;;;;;;;1.63;0.60;;;;;;;4.81;100.00;94689.91;982456;30;20103;-59
2021/01/30 01:00:51;;;;;;;2.08;0.60;;;;;;;4.80;100.00;94661.97;982502;30;20055;-59
2021/01/30 01:01:23;;;;;;;1.52;0.43;;;;;;;4.88;100.00;94667.19;986322;30;20059;-58
2021/01/30 01:01:53;;;;;;;2.55;0.50;;;;;;;4.88;100.00;94664.56;982561;30;20105;-57
2021/01/30 01:02:24;;;;;;;2.75;0.80;;;;;;;4.88;100.00;94659.28;993523;29;20055;-57
2021/01/30 01:02:55;;;;;;;1.83;1.15;;;;;;;4.88;100.00;94673.25;993735;29;20026;-58
2021/01/30 01:03:26;;;;;;;1.58;0.50;;;;;;;4.88;100.00;94680.34;993811;29;20455;-59
2021/01/30 01:03:57;;;;;;;1.65;1.15;;;;;;;4.87;100.00;94670.78;982580;30;20035;-58
2021/01/30 01:04:28;;;;;;;1.10;0.60;;;;;;;4.87;100.00;94662.91;982413;30;20398;-58
2021/01/30 01:04:59;;;;;;;2.10;0.50;;;;;;;4.85;100.00;94683.31;986206;30;20462;-58
2021/01/30 01:05:29;;;;;;;1.52;0.70;;;;;;;4.88;100.00;94675.88;986997;30;20020;-59
2021/01/30 01:06:00;;;;;;;1.60;0.60;;;;;;;4.90;100.00;94675.72;978881;30;20032;-58
2021/01/30 01:06:32;;;;;;;1.48;0.47;;;;;;;4.90;100.00;94688.88;978808;30;20031;-59
2021/01/30 01:07:03;;;;;;;1.23;0.50;;;;;;;4.93;100.00;94685.06;989828;30;20491;-58
2021/01/30 01:07:34;;;;;;;1.92;0.70;;;;;;;4.87;100.00;94689.22;986220;30;20023;-59
2021/01/30 01:08:05;;;;;;;1.73;0.57;;;;;;;4.90;100.00;94681.78;982571;30;20020;-59
2021/01/30 01:08:35;;;;;;;0.70;0.50;;;;;;;4.90;100.00;94694.94;989774;30;20482;-59
2021/01/30 01:09:07;;;;;;;2.10;0.60;;;;;;;4.89;100.00;94700.38;982455;30;20513;-58
2021/01/30 01:09:38;;;;;;;1.55;0.52;;;;;;;4.90;100.00;94678.34;978943;30;20059;-58
2021/01/30 01:10:09;;;;;;;1.30;0.40;;;;;;;4.93;100.00;94703.47;982546;30;20023;-58
2021/01/30 01:10:40;;;;;;;1.20;0.32;;;;;;;4.91;100.00;94698.38;993481;29;20022;-58
2021/01/30 01:11:11;;;;;;;2.35;0.60;;;;;;;4.92;100.00;94692.16;989834;30;20031;-57
2021/01/30 01:11:43;;;;;;;2.50;0.77;;;;;;;4.93;100.00;94695.59;979096;30;20077;-58
2021/01/30 01:12:14;;;;;;;1.15;0.60;;;;;;;4.89;100.00;94693.31;986211;30;20023;-58
2021/01/30 01:12:44;;;;;;;0.98;0.50;;;;;;;4.87;100.00;94697.09;989660;30;20027;-57
2021/01/30 01:13:15;;;;;;;1.98;0.57;;;;;;;4.88;100.00;94690.84;993551;29;20114;-58
2021/01/30 01:13:46;;;;;;;1.88;0.65;;;;;;;4.83;100.00;94686.09;986296;30;20020;-58
2021/01/30 01:14:18;;;;;;;1.98;0.68;;;;;;;4.88;100.00;94693.50;986192;30;20023;-57
2021/01/30 01:14:49;;;;;;;1.33;0.70;;;;;;;4.87;100.00;94681.31;985337;30;20028;-58
2021/01/30 01:15:20;;;;;;;3.03;0.60;;;;;;;4.90;100.00;94707.28;986239;30;20397;-58
2021/01/30 01:15:50;;;;;;;2.60;0.50;;;;;;;4.93;100.00;94698.22;986125;30;20058;-58
2021/01/30 01:16:21;;;;;;;1.95;0.68;;;;;;;4.94;100.00;94697.25;986237;30;20089;-58
2021/01/30 01:16:52;;;;;;;2.53;0.57;;;;;;;4.94;100.00;94695.41;982410;30;20024;-58
2021/01/30 01:17:23;;;;;;;0.93;0.50;;;;;;;4.89;100.00;94676.69;982391;30;20036;-58
2021/01/30 01:17:54;;;;;;;0.80;0.40;;;;;;;4.90;100.00;94694.94;978887;30;20051;-58
2021/01/30 01:18:25;;;;;;;1.75;0.60;;;;;;;4.93;100.00;94699.06;986203;30;20031;-60
2021/01/30 01:18:55;;;;;;;3.40;0.57;;;;;;;4.96;100.00;94693.44;975077;30;20038;-58
2021/01/30 01:19:26;;;;;;;0.85;0.45;;;;;;;4.96;100.00;94706.59;982728;30;20029;-58
2021/01/30 01:19:57;;;;;;;1.40;0.68;;;;;;;4.92;100.00;94707.94;978950;30;20139;-58
2021/01/30 01:20:27;;;;;;;3.45;0.75;;;;;;;4.91;100.00;94716.78;993556;29;20500;-58
2021/01/30 01:20:58;;;;;;;1.08;0.60;;;;;;;4.92;100.00;94707.94;993462;29;20030;-58
2021/01/30 01:21:29;;;;;;;2.58;0.60;;;;;;;4.93;100.00;94712.22;982418;30;20084;-58
2021/01/30 01:22:00;;;;;;;0.98;0.45;;;;;;;4.91;100.00;94722.06;1001125;29;20018;-58
2021/01/30 01:22:31;;;;;;;0.82;0.45;;;;;;;4.89;100.00;94726.69;986212;30;20131;-58
2021/01/30 01:23:02;;;;;;;1.15;0.55;;;;;;;4.90;100.00;94716.00;989731;30;20035;-59
2021/01/30 01:23:33;;;;;;;0.85;0.30;;;;;;;4.89;100.00;94706.47;993587;29;20500;-59
2021/01/30 01:24:04;;;;;;;3.10;0.50;;;;;;;4.92;100.00;94734.22;989795;29;20020;-57
2021/01/30 01:24:35;;;;;;;1.13;0.47;;;;;;;4.92;100.00;94734.22;989993;30;20503;-57
2021/01/30 01:25:07;;;;;;;0.82;0.50;;;;;;;4.90;100.00;94717.81;997185;29;20014;-57
2021/01/30 01:25:38;;;;;;;1.40;0.43;;;;;;;4.86;100.00;94721.75;989723;30;20031;-58
2021/01/30 01:26:10;;;;;;;0.73;0.60;;;;;;;4.84;100.00;94719.31;989839;29;20023;-58
2021/01/30 01:26:43;;;;;;;3.25;0.63;;;;;;;4.85;100.00;94728.84;978932;30;20036;-58
2021/01/30 01:27:14;;;;;;;1.40;0.52;;;;;;;4.85;100.00;94730.66;986099;30;20020;-58
2021/01/30 01:27:45;;;;;;;1.42;0.60;;;;;;;4.82;100.00;94723.09;985945;30;20089;-57
2021/01/30 01:28:16;;;;;;;1.13;0.50;;;;;;;4.79;100.00;94711.13;990019;30;20023;-59
2021/01/30 01:28:49;;;;;;;1.02;0.50;;;;;;;4.75;100.00;94722.94;989945;30;20034;-59
2021/01/30 01:29:20;;;;;;;1.17;0.57;;;;;;;4.76;100.00;94729.88;989715;30;20019;-58
2021/01/30 01:29:51;;;;;;;1.48;0.40;;;;;;;4.79;100.00;94723.44;993580;29;20503;-58
2021/01/30 01:30:23;;;;;;;2.03;0.60;;;;;;;4.81;100.00;94737.25;986189;30;20111;-59
2021/01/30 01:30:53;;;;;;;1.58;0.40;;;;;;;4.80;100.00;94748.75;993612;29;20127;-59
2021/01/30 01:31:24;;;;;;;1.02;0.50;;;;;;;4.82;100.00;94723.09;993429;29;20041;-59
2021/01/30 01:31:56;;;;;;;0.35;0.30;;;;;;;4.81;100.00;94732.81;989878;30;20034;-59
2021/01/30 01:32:27;;;;;;;1.23;0.60;;;;;;;4.82;100.00;94729.16;989837;30;20030;-59
2021/01/30 01:32:58;;;;;;;1.98;0.57;;;;;;;4.82;100.00;94729.16;996940;29;20027;-58
2021/01/30 01:33:29;;;;;;;0.63;0.40;;;;;;;4.82;100.00;94744.94;996729;29;20022;-59
2021/01/30 01:34:00;;;;;;;1.00;0.30;;;;;;;4.80;100.00;94728.53;982375;30;20487;-58
2021/01/30 01:34:31;;;;;;;0.52;0.43;;;;;;;4.83;100.00;94764.19;978846;30;20371;-59
2021/01/30 01:35:02;;;;;;;0.68;0.32;;;;;;;4.83;100.00;94748.41;985858;30;20028;-58
2021/01/30 01:35:33;;;;;;;2.15;0.55;;;;;;;4.80;100.00;94728.53;993609;29;20022;-59
2021/01/30 01:36:05;;;;;;;3.35;0.70;;;;;;;4.73;100.00;94746.78;986064;30;20036;-59
2021/01/30 01:36:35;;;;;;;2.28;0.43;;;;;;;4.72;100.00;94744.34;993490;29;20023;-58
2021/01/30 01:37:06;;;;;;;0.73;0.50;;;;;;;4.71;100.00;94721.66;993604;29;20034;-60
2021/01/30 01:37:37;;;;;;;0.82;0.35;;;;;;;4.72;100.00;94744.34;985926;30;20036;-58
2021/01/30 01:38:08;;;;;;;0.88;0.22;;;;;;;4.71;100.00;94734.81;978818;30;20048;-59
2021/01/30 01:38:39;;;;;;;1.17;0.40;;;;;;;4.66;100.00;94740.56;986099;30;20476;-59
2021/01/30 01:39:10;;;;;;;0.98;0.30;;;;;;;4.68;100.00;94738.59;986142;30;20453;-59
2021/01/30 01:39:40;;;;;;;0.85;0.52;;;;;;;4.69;100.00;94744.69;982335;30;20029;-59
2021/01/30 01:40:12;;;;;;;0.50;0.35;;;;;;;4.68;100.00;94745.66;982222;30;20028;-59
2021/01/30 01:40:43;;;;;;;1.15;0.50;;;;;;;4.46;100.00;94713.03;989800;30;20062;-59
2021/01/30 01:41:14;;;;;;;0.88;0.50;;;;;;;4.61;100.00;94752.59;982447;30;20391;-59
2021/01/30 01:41:45;;;;;;;1.05;0.50;;;;;;;4.58;100.00;94745.03;982404;30;20025;-59
2021/01/30 01:42:17;;;;;;;1.80;0.43;;;;;;;4.50;100.00;94751.97;993476;29;20474;-59
2021/01/30 01:42:48;;;;;;;1.65;0.50;;;;;;;4.50;100.00;94735.38;982440;30;20024;-59
2021/01/30 01:43:21;;;;;;;0.98;0.57;;;;;;;4.46;100.00;94758.56;989794;30;20495;-61
2021/01/30 01:43:52;;;;;;;1.33;0.60;;;;;;;4.43;100.00;94745.75;989721;30;20520;-61
2021/01/30 01:44:23;;;;;;;1.48;0.40;;;;;;;4.39;100.00;94739.19;986036;30;20024;-62
2021/01/30 01:44:54;;;;;;;2.90;0.70;;;;;;;4.34;100.00;94731.78;978955;30;20466;-60
2021/01/30 01:45:25;;;;;;;0.50;0.43;;;;;;;4.34;100.00;94755.44;989766;30;20109;-60
2021/01/30 01:46:06;;;;;;;1.63;0.60;;;;;;;4.36;100.00;94742.16;989813;30;20035;-61
2021/01/30 01:46:38;;;;;;;1.95;0.85;;;;;;;4.31;100.00;94758.41;982349;30;20020;-60
2021/01/30 01:47:23;;;;;;;1.05;0.70;;;;;;;4.32;100.00;94746.91;989852;30;20031;-60
2021/01/30 01:47:54;;;;;;;1.08;0.75;;;;;;;4.35;100.00;94743.13;986084;30;20477;-61
2021/01/30 01:48:27;;;;;;;0.73;0.50;;;;;;;4.36;100.00;94746.59;989667;30;20061;-62
2021/01/30 01:49:00;;;;;;;1.08;0.80;;;;;;;4.38;100.00;94752.50;982544;30;20081;-61
2021/01/30 01:49:33;;;;;;;2.45;0.73;;;;;;;4.36;100.00;94741.34;989740;30;20116;-61
2021/01/30 01:50:07;;;;;;;1.75;0.70;;;;;;;4.36;100.00;94746.59;989807;29;20030;-60
2021/01/30 01:50:47;;;;;;;3.17;1.23;;;;;;;4.34;100.00;94744.94;985915;30;20039;-60
2021/01/30 01:51:25;;;;;;;1.10;0.80;;;;;;;4.26;100.00;94725.75;993712;29;20028;-60
2021/01/30 01:52:15;;;;;;;1.90;0.70;;;;;;;4.24;100.00;94718.03;993485;29;20177;-60
2021/01/30 01:52:45;;;;;;;1.95;0.73;;;;;;;4.24;100.00;94720.66;993450;29;20486;-60
2021/01/30 01:53:20;;;;;;;1.67;0.80;;;;;;;4.23;100.00;94726.91;982439;30;20027;-61
2021/01/30 01:53:51;;;;;;;1.52;0.82;;;;;;;4.17;100.00;94743.31;989754;30;20034;-60
2021/01/30 01:54:24;;;;;;;2.92;0.70;;;;;;;4.18;100.00;94736.25;989736;30;20023;-60
2021/01/30 01:54:58;;;;;;;6.32;0.82;;;;;;;4.16;100.00;94739.03;986026;30;20028;-60
2021/01/30 01:55:29;;;;;;;1.48;0.77;;;;;;;4.17;100.00;94745.13;978763;30;20473;-59
2021/01/30 01:56:04;;;;;;;2.45;0.80;;;;;;;4.13;100.00;94736.78;982591;30;20032;-60
2021/01/30 01:56:35;;;;;;;1.48;0.55;;;;;;;4.12;100.00;94735.13;993270;29;20015;-60
2021/01/30 01:57:11;;;;;;;2.05;0.85;;;;;;;4.10;100.00;94744.97;989802;29;20031;-60
2021/01/30 01:57:51;;;;;;;1.27;0.90;;;;;;;4.07;100.00;94740.06;985848;30;20015;-60
2021/01/30 01:58:22;;;;;;;1.13;0.68;;;;;;;4.05;100.00;94755.97;985967;30;20058;-60
2021/01/30 01:58:57;;;;;;;1.23;0.60;;;;;;;4.07;100.00;94747.94;985828;30;20522;-60
2021/01/30 01:59:27;;;;;;;2.22;0.70;;;;;;;4.09;100.00;94756.47;986180;30;20539;-60
2021/01/30 01:59:58;;;;;;;1.27;0.55;;;;;;;4.12;100.00;94751.69;986055;30;20030;-59
2021/01/30 02:00:29;;;;;;;2.03;0.60;;;;;;;4.10;100.00;94742.34;978725;30;20566;-60
2021/01/30 02:01:00;;;;;;;1.83;0.80;;;;;;;4.07;100.00;94746.13;978608;30;20056;-60
2021/01/30 02:01:31;;;;;;;1.05;0.60;;;;;;;4.10;100.00;94752.84;986201;30;20031;-59
2021/01/30 02:02:02;;;;;;;2.75;0.77;;;;;;;4.09;100.00;94748.59;982872;30;20036;-59
2021/01/30 02:02:33;;;;;;;1.13;0.30;;;;;;;4.17;100.00;94760.91;978698;30;20017;-58
2021/01/30 02:03:04;;;;;;;2.53;0.80;;;;;;;4.18;100.00;94760.75;985849;30;20035;-59
2021/01/30 02:03:35;;;;;;;1.48;0.55;;;;;;;4.17;100.00;94756.47;982536;30;20035;-60
2021/01/30 02:04:14;;;;;;;1.90;0.70;;;;;;;4.16;100.00;94749.56;985988;30;20038;-59
2021/01/30 02:05:05;;;;;;;1.08;0.40;;;;;;;4.18;100.00;94767.78;985723;30;20040;-60
2021/01/30 02:05:37;;;;;;;2.10;0.57;;;;;;;4.19;100.00;94761.56;982419;30;20032;-59
2021/01/30 02:06:08;;;;;;;1.50;0.52;;;;;;;4.18;100.00;94752.03;986048;30;20024;-59
2021/01/30 02:06:41;;;;;;;1.10;0.60;;;;;;;4.22;100.00;94754.16;989812;30;20394;-59
2021/01/30 02:07:12;;;;;;;1.65;0.70;;;;;;;4.20;100.00;94766.66;985905;30;20419;-59
2021/01/30 02:07:43;;;;;;;1.60;0.70;;;;;;;4.22;100.00;94758.59;989733;30;20055;-59
2021/01/30 02:08:16;;;;;;;2.47;0.60;;;;;;;4.20;100.00;94764.03;989883;30;20031;-59
2021/01/30 02:08:47;;;;;;;1.35;0.50;;;;;;;4.20;100.00;94756.13;982347;30;20380;-60
2021/01/30 02:09:21;;;;;;;2.03;0.60;;;;;;;4.21;100.00;94752.50;982358;30;20120;-59
2021/01/30 02:09:54;;;;;;;0.88;0.40;;;;;;;4.21;100.00;94751.69;986009;30;20040;-58
2021/01/30 02:10:26;;;;;;;2.08;0.60;;;;;;;4.20;100.00;94753.50;982327;30;20039;-59
2021/01/30 02:10:58;;;;;;;1.08;0.47;;;;;;;4.20;100.00;94756.13;989514;30;20460;-59
2021/01/30 02:11:28;;;;;;;0.82;0.47;;;;;;;4.20;100.00;94755.28;989699;30;20015;-59
2021/01/30 02:12:10;;;;;;;2.88;0.40;;;;;;;4.23;100.00;94752.34;985961;30;20074;-59
2021/01/30 02:12:41;;;;;;;1.35;0.50;;;;;;;4.24;100.00;94751.38;986036;30;20059;-58
2021/01/30 02:13:14;;;;;;;0.85;0.40;;;;;;;4.21;100.00;94752.50;985873;30;20032;-58
2021/01/30 02:13:54;;;;;;;1.33;0.40;;;;;;;4.24;100.00;94754.81;989755;30;20035;-59
2021/01/30 02:14:24;;;;;;;1.00;0.50;;;;;;;4.27;100.00;94751.03;993618;29;20103;-59
2021/01/30 02:14:56;;;;;;;1.30;0.50;;;;;;;4.30;100.00;94751.53;982409;30;20097;-59
2021/01/30 02:15:26;;;;;;;2.45;0.45;;;;;;;4.28;100.00;94740.34;985813;30;20028;-59
2021/01/30 02:16:15;;;;;;;1.58;0.35;;;;;;;4.24;100.00;94744.28;989761;30;20083;-59
2021/01/30 02:16:48;;;;;;;2.08;0.40;;;;;;;4.26;100.00;94752.00;986064;30;20532;-59
2021/01/30 02:17:37;;;;;;;2.72;0.68;;;;;;;4.25;100.00;94748.56;982081;30;20024;-60
2021/01/30 02:18:29;;;;;;;1.17;0.40;;;;;;;4.25;100.00;94743.31;989899;30;20023;-59
2021/01/30 02:19:07;;;;;;;0.95;0.30;;;;;;;4.19;100.00;94737.91;989683;30;20027;-59
2021/01/30 02:19:57;;;;;;;2.05;0.57;;;;;;;4.21;100.00;94741.19;993284;29;20027;-59
2021/01/30 02:20:45;;;;;;;0.70;0.30;;;;;;;4.24;100.00;94746.91;993456;29;20026;-60
2021/01/30 02:21:39;;;;;;;1.23;0.40;;;;;;;4.25;100.00;94756.47;1000159;29;20074;-59
2021/01/30 02:22:29;;;;;;;0.90;0.43;;;;;;;4.27;100.00;94728.19;995881;29;20026;-59
2021/01/30 02:23:09;;;;;;;3.22;0.45;;;;;;;4.24;100.00;94741.66;993488;29;20088;-59
2021/01/30 02:23:59;;;;;;;0.88;0.50;;;;;;;4.24;100.00;94740.84;993241;29;20038;-60
2021/01/30 02:24:37;;;;;;;;;;;;;;;4.21;100.00;94738.56;990143;30;20026;-58
2021/01/30 02:25:27;;;;;;;1.60;0.80;;;;;;;4.17;100.00;94740.69;985976;30;19914;-59
2021/01/30 02:26:05;;;;;;;0.57;0.30;;;;;;;4.16;100.00;94744.31;978470;30;20043;-58
2021/01/30 02:26:55;;;;;;;2.20;0.50;;;;;;;4.18;100.00;94744.13;989831;30;20574;-58
2021/01/30 02:27:47;;;;;;;0.75;0.30;;;;;;;4.16;100.00;94744.31;989740;30;20118;-59
2021/01/30 02:28:30;;;;;;;1.63;0.30;;;;;;;4.19;100.00;94745.78;988235;30;20034;-59
2021/01/30 02:29:20;;;;;;;1.80;0.40;;;;;;;4.19;100.00;94738.72;983315;30;20032;-59
2021/01/30 02:30:07;;;;;;;1.38;0.47;;;;;;;4.15;100.00;94729.53;989676;29;20503;-59
2021/01/30 02:30:57;;;;;;;0.90;0.55;;;;;;;4.22;100.00;94751.53;979610;30;20515;-59
2021/01/30 02:31:38;;;;;;;0.63;0.40;;;;;;;4.23;100.00;94739.19;982308;30;20548;-59
2021/01/30 02:32:20;;;;;;;1.42;0.52;;;;;;;4.20;100.00;94748.25;982117;30;20468;-59
2021/01/30 02:32:55;;;;;;;1.75;0.32;;;;;;;4.19;100.00;94741.34;982352;30;20122;-57
2021/01/30 02:33:40;;;;;;;1.35;0.40;;;;;;;4.23;100.00;94755.81;978781;30;20086;-57
2021/01/30 02:34:23;;;;;;;0.85;0.50;;;;;;;4.29;100.00;94744.63;985567;30;20400;-56
2021/01/30 02:35:11;;;;;;;1.35;0.50;;;;;;;4.28;100.00;94742.16;985906;30;20036;-57
2021/01/30 02:35:56;;;;;;;1.73;0.52;;;;;;;4.30;100.00;94754.16;986149;29;20047;-57
2021/01/30 02:36:38;;;;;;;0.93;0.30;;;;;;;4.32;100.00;94748.72;993496;29;20022;-59
2021/01/30 02:37:14;;;;;;;2.75;0.55;;;;;;;4.25;100.00;94743.31;989625;30;20039;-59
2021/01/30 02:37:50;;;;;;;1.77;0.60;;;;;;;4.30;100.00;94745.44;985848;30;20036;-59